Time;durP1;ratioP1;P1;durP2;ratioP2;P2;SDS_P1;SDS_P2;PMS_P1;PMS_P2;Temp;Humidity;BMP_temperature;BMP_pressure;BME280_temperature;BME280_humidity;BME280_pressure;Samples;Min_cycle;Max_cycle;Signal;HPM_P1;HPM_P2
2023/01/05 00:01:06;;;;;;;15.10;3.35;;;10.20;99.90;;;;;;5092757;28;20416;-65
2023/01/05 00:03:34;;;;;;;8.27;2.80;;;10.20;99.90;;;;;;5092252;28;20417;-66
2023/01/05 00:06:01;;;;;;;9.57;2.80;;;10.20;99.90;;;;;;5092220;28;20413;-65
2023/01/05 00:08:27;;;;;;;8.55;3.03;;;10.20;99.90;;;;;;5092230;28;20420;-66
2023/01/05 00:22:33;;;;;;;15.10;3.90;;;10.10;99.90;;;;;;5065449;28;20421;-65
2023/01/05 00:25:01;;;;;;;9.95;3.40;;;10.10;99.90;;;;;;5091482;28;20913;-66
2023/01/05 00:27:28;;;;;;;17.05;3.03;;;10.10;99.90;;;;;;5095666;28;20417;-64
2023/01/05 00:29:57;;;;;;;13.00;3.20;;;10.10;99.90;;;;;;5095822;28;20413;-64
2023/01/05 00:32:25;;;;;;;11.18;2.95;;;10.10;99.90;;;;;;5096222;28;20402;-64
2023/01/05 00:34:54;;;;;;;15.48;3.55;;;10.10;99.90;;;;;;5095929;28;20406;-65
2023/01/05 00:37:22;;;;;;;13.13;3.40;;;10.10;99.90;;;;;;5095750;28;20417;-65
2023/01/05 00:39:49;;;;;;;9.60;2.75;;;10.10;99.90;;;;;;5096006;28;20461;-65
2023/01/05 00:42:16;;;;;;;15.63;3.30;;;10.10;99.90;;;;;;5096017;28;20410;-65
2023/01/05 00:44:43;;;;;;;11.38;3.22;;;10.10;99.90;;;;;;5095775;28;20414;-66
2023/01/05 00:47:11;;;;;;;11.20;3.23;;;10.00;99.90;;;;;;5095849;28;20409;-66
2023/01/05 00:49:38;;;;;;;12.23;2.88;;;9.90;99.90;;;;;;5095817;28;20413;-66
2023/01/05 00:52:05;;;;;;;12.50;3.40;;;9.80;99.90;;;;;;5095662;28;20770;-65
2023/01/05 00:54:32;;;;;;;11.52;3.30;;;9.80;99.90;;;;;;5095612;28;20413;-65
2023/01/05 00:56:58;;;;;;;10.43;3.15;;;9.80;99.90;;;;;;5095520;28;20425;-65
2023/01/05 00:59:25;;;;;;;13.70;4.00;;;9.80;99.90;;;;;;5096462;28;20409;-64
2023/01/05 01:01:53;;;;;;;15.90;3.60;;;9.80;99.90;;;;;;5095796;28;20416;-65
2023/01/05 01:04:21;;;;;;;10.88;3.35;;;9.80;99.90;;;;;;5095657;28;20413;-64
2023/01/05 01:06:48;;;;;;;11.80;2.93;;;9.80;99.90;;;;;;5095543;28;20409;-65
2023/01/05 01:09:15;;;;;;;12.65;3.10;;;9.80;99.90;;;;;;5096523;28;20749;-65
2023/01/05 01:11:42;;;;;;;13.52;3.30;;;9.90;99.90;;;;;;5095590;28;20422;-65
2023/01/05 01:14:11;;;;;;;14.15;3.63;;;9.90;99.90;;;;;;5094838;28;20897;-65
2023/01/05 01:16:38;;;;;;;13.63;3.45;;;9.90;99.90;;;;;;5095195;28;20433;-65
2023/01/05 01:19:05;;;;;;;12.70;3.50;;;9.90;99.90;;;;;;5094967;28;20900;-65
2023/01/05 01:21:33;;;;;;;11.50;3.50;;;9.90;99.90;;;;;;5095593;28;20440;-65
2023/01/05 01:24:00;;;;;;;13.18;3.50;;;9.90;99.90;;;;;;5095519;28;20885;-65
2023/01/05 01:26:26;;;;;;;11.03;3.20;;;10.00;99.90;;;;;;5095237;28;20428;-65
2023/01/05 01:28:53;;;;;;;11.50;3.22;;;9.90;99.90;;;;;;5095467;28;20414;-64
2023/01/05 01:31:20;;;;;;;12.52;2.90;;;9.90;99.90;;;;;;5095098;28;20406;-65
2023/01/05 01:33:46;;;;;;;13.10;3.50;;;10.00;99.90;;;;;;5094958;28;20767;-65
2023/01/05 01:36:13;;;;;;;10.60;3.20;;;10.00;99.90;;;;;;5094983;28;20425;-64
2023/01/05 01:38:41;;;;;;;11.57;3.22;;;10.00;99.90;;;;;;5095266;28;20433;-65
2023/01/05 01:41:08;;;;;;;10.60;2.83;;;10.00;99.90;;;;;;5094997;28;20410;-64
2023/01/05 01:43:44;;;;;;;14.20;4.43;;;10.00;99.90;;;;;;5094711;28;20882;-64
2023/01/05 01:46:12;;;;;;;13.50;3.55;;;10.00;99.90;;;;;;5094574;28;20878;-64
2023/01/05 01:48:42;;;;;;;12.35;3.25;;;10.00;99.90;;;;;;5095170;28;20413;-64
2023/01/05 01:51:14;;;;;;;13.75;3.58;;;10.10;99.90;;;;;;5094928;28;20429;-65
2023/01/05 01:53:45;;;;;;;10.68;3.33;;;10.10;99.90;;;;;;5094809;28;20421;-65
2023/01/05 01:56:15;;;;;;;14.95;3.40;;;10.10;99.90;;;;;;5094224;28;20928;-64
2023/01/05 01:58:43;;;;;;;15.70;3.90;;;10.10;99.90;;;;;;5094381;28;20465;-64
2023/01/05 02:01:11;;;;;;;12.80;3.10;;;10.10;99.90;;;;;;5094674;28;20436;-64
2023/01/05 02:03:38;;;;;;;13.77;3.30;;;10.10;99.90;;;;;;5094634;28;20414;-64
2023/01/05 02:06:05;;;;;;;13.73;3.47;;;10.00;99.90;;;;;;5094760;28;20405;-64
2023/01/05 02:08:32;;;;;;;15.27;3.30;;;9.90;99.90;;;;;;5094779;28;20410;-64
2023/01/05 02:11:15;;;;;;;12.57;3.20;;;9.80;99.90;;;;;;5094415;28;20410;-65
2023/01/05 02:13:55;;;;;;;11.43;3.80;;;9.80;99.90;;;;;;5094744;28;20420;-64
2023/01/05 02:16:30;;;;;;;13.63;3.65;;;9.70;99.90;;;;;;5093893;28;20422;-64
2023/01/05 02:19:15;;;;;;;15.70;3.75;;;9.60;99.90;;;;;;5094375;28;20474;-65
2023/01/05 02:21:52;;;;;;;14.35;3.60;;;9.60;99.90;;;;;;5094276;28;20424;-65
2023/01/05 02:24:45;;;;;;;14.18;3.20;;;9.50;99.90;;;;;;5094334;28;20450;-64
2023/01/05 02:27:38;;;;;;;13.80;3.60;;;9.50;99.90;;;;;;5094201;28;20442;-64
2023/01/05 02:31:02;;;;;;;13.13;3.70;;;9.50;99.90;;;;;;5094149;28;20420;-65
2023/01/05 02:33:53;;;;;;;11.98;3.50;;;9.40;99.90;;;;;;5093949;28;20417;-65
2023/01/05 02:36:25;;;;;;;11.77;3.60;;;9.40;99.90;;;;;;5093352;28;20466;-64
2023/01/05 02:38:58;;;;;;;11.30;3.30;;;9.40;99.90;;;;;;5093858;28;20417;-64
2023/01/05 02:41:30;;;;;;;11.33;3.30;;;9.40;99.90;;;;;;5093726;28;20472;-64
2023/01/05 02:43:57;;;;;;;15.77;4.15;;;9.30;99.90;;;;;;5093598;28;20420;-64
2023/01/05 02:46:24;;;;;;;16.55;3.45;;;9.20;99.90;;;;;;5093703;28;20413;-64
2023/01/05 02:48:56;;;;;;;13.35;3.70;;;9.20;99.90;;;;;;5092747;28;20409;-65
2023/01/05 02:51:26;;;;;;;17.35;4.00;;;9.20;99.90;;;;;;5093009;28;20420;-64
2023/01/05 02:53:59;;;;;;;14.40;3.70;;;9.10;99.90;;;;;;5093539;28;20433;-64
2023/01/05 02:56:30;;;;;;;11.85;3.38;;;9.10;99.90;;;;;;5093338;28;20433;-65
2023/01/05 02:59:01;;;;;;;9.57;2.95;;;9.10;99.90;;;;;;5093333;28;20421;-65
2023/01/05 03:01:31;;;;;;;10.38;3.15;;;9.10;99.90;;;;;;5093427;28;20769;-65
2023/01/05 03:04:03;;;;;;;11.93;3.28;;;9.10;99.90;;;;;;5093132;28;20410;-65
2023/01/05 03:06:34;;;;;;;9.10;3.25;;;9.10;99.90;;;;;;5093241;28;20424;-66
2023/01/05 03:09:04;;;;;;;11.40;3.33;;;9.00;99.90;;;;;;5093618;28;20413;-64
2023/01/05 03:14:25;;;;;;;11.90;3.22;;;9.00;99.90;;;;;;5093235;28;20395;-66
2023/01/05 03:16:55;;;;;;;13.13;3.30;;;9.00;99.90;;;;;;5092882;28;20422;-63
2023/01/05 03:19:38;;;;;;;8.85;4.30;;;9.00;99.90;;;;;;5092689;28;20417;-65
2023/01/05 03:36:28;;;;;;;11.53;3.53;;;9.10;99.90;;;;;;5092544;28;20466;-65
2023/01/05 03:38:57;;;;;;;12.18;3.45;;;9.10;99.90;;;;;;5093710;28;20410;-65
2023/01/05 03:41:25;;;;;;;8.75;2.80;;;9.10;99.90;;;;;;5092943;28;20421;-65
2023/01/05 03:43:53;;;;;;;14.75;3.70;;;9.20;99.90;;;;;;5092784;28;20471;-65
2023/01/05 03:46:21;;;;;;;13.23;3.00;;;9.20;99.90;;;;;;5092610;28;20417;-65
2023/01/05 03:48:49;;;;;;;16.75;3.97;;;9.20;99.90;;;;;;5092736;28;20417;-65
2023/01/05 03:51:17;;;;;;;13.00;3.75;;;9.20;99.90;;;;;;5092719;28;20484;-65
2023/01/05 03:53:45;;;;;;;13.75;4.25;;;9.20;99.90;;;;;;5092591;28;20429;-65
2023/01/05 03:56:11;;;;;;;15.15;3.30;;;9.20;99.90;;;;;;5092383;28;20430;-65
2023/01/05 03:58:38;;;;;;;13.95;3.50;;;9.20;99.90;;;;;;5093164;28;20412;-65
2023/01/05 04:01:05;;;;;;;14.25;3.95;;;9.20;99.90;;;;;;5092550;28;20421;-65
2023/01/05 04:03:32;;;;;;;15.55;3.95;;;9.10;99.90;;;;;;5093510;28;20413;-64
2023/01/05 04:06:00;;;;;;;13.80;3.40;;;9.10;99.90;;;;;;5093973;28;20759;-65
2023/01/05 04:10:56;;;;;;;12.93;4.15;;;9.20;99.90;;;;;;5100262;27;1927285;-65
2023/01/05 04:13:24;;;;;;;19.48;4.40;;;9.20;99.90;;;;;;5140725;28;20864;-66
2023/01/05 04:15:51;;;;;;;16.75;3.90;;;9.10;99.90;;;;;;5120158;28;20866;-65
2023/01/05 04:18:18;;;;;;;15.65;4.88;;;9.20;99.90;;;;;;5110262;28;20409;-65
2023/01/05 04:20:44;;;;;;;19.23;4.15;;;9.20;99.90;;;;;;5109674;28;20886;-65
2023/01/05 04:23:11;;;;;;;15.23;3.65;;;9.20;99.90;;;;;;5111553;28;20420;-65
2023/01/05 04:25:38;;;;;;;15.60;3.45;;;9.20;99.90;;;;;;5110260;28;20409;-66
2023/01/05 04:28:06;;;;;;;12.25;3.30;;;9.20;99.90;;;;;;5110482;28;20434;-66
2023/01/05 04:30:33;;;;;;;10.20;3.20;;;9.20;99.90;;;;;;5109805;28;20897;-65
2023/01/05 04:33:00;;;;;;;14.75;3.53;;;9.20;99.90;;;;;;5110393;28;20412;-67
2023/01/05 04:35:27;;;;;;;12.45;3.30;;;9.30;99.90;;;;;;5109880;28;20456;-66
2023/01/05 04:37:53;;;;;;;11.18;3.53;;;9.30;99.90;;;;;;5110242;28;20420;-65
2023/01/05 04:40:20;;;;;;;16.23;4.00;;;9.30;99.90;;;;;;5109962;28;20405;-65
2023/01/05 04:42:47;;;;;;;14.00;3.50;;;9.30;99.90;;;;;;5109574;28;20413;-64
2023/01/05 04:45:15;;;;;;;12.40;3.87;;;9.30;99.90;;;;;;5109432;28;20416;-65
2023/01/05 04:47:42;;;;;;;12.55;3.95;;;9.30;99.90;;;;;;5109425;28;20515;-64
2023/01/05 04:50:10;;;;;;;14.50;3.58;;;9.20;99.90;;;;;;5109390;28;20449;-64
2023/01/05 04:52:37;;;;;;;14.00;4.50;;;9.20;99.90;;;;;;5110506;28;20423;-66
2023/01/05 04:55:04;;;;;;;13.35;4.22;;;9.20;99.90;;;;;;5109214;28;20773;-66
2023/01/05 04:57:31;;;;;;;15.15;4.28;;;9.10;99.90;;;;;;5109383;28;20413;-65
2023/01/05 04:59:58;;;;;;;12.55;4.35;;;9.10;99.90;;;;;;5109066;28;20401;-66
2023/01/05 05:02:26;;;;;;;9.52;3.90;;;9.10;99.90;;;;;;5108800;28;20417;-66
2023/01/05 05:04:52;;;;;;;14.10;4.40;;;9.10;99.90;;;;;;5108012;28;20409;-66
2023/01/05 05:07:19;;;;;;;15.73;3.83;;;9.00;99.90;;;;;;5106418;28;20433;-65
2023/01/05 05:09:46;;;;;;;11.23;3.97;;;9.00;99.90;;;;;;5108770;28;20436;-64
2023/01/05 05:12:13;;;;;;;11.18;4.10;;;9.00;99.90;;;;;;5106068;28;20436;-66
2023/01/05 05:14:40;;;;;;;11.95;3.20;;;9.00;99.90;;;;;;5110742;28;20411;-64
2023/01/05 05:17:06;;;;;;;13.25;3.70;;;9.00;99.90;;;;;;5109132;28;20436;-62
2023/01/05 05:19:35;;;;;;;9.10;3.15;;;9.00;99.90;;;;;;5108777;28;20440;-64
2023/01/05 05:22:01;;;;;;;13.20;3.80;;;9.00;99.90;;;;;;5096388;28;20417;-65
2023/01/05 05:24:28;;;;;;;14.07;3.17;;;9.00;99.90;;;;;;5095148;28;20420;-65
2023/01/05 05:26:56;;;;;;;10.93;3.80;;;9.00;99.90;;;;;;5094820;28;20893;-65
2023/01/05 05:29:22;;;;;;;12.02;3.30;;;9.00;99.90;;;;;;5095098;28;20429;-64
2023/01/05 05:31:49;;;;;;;13.45;4.80;;;9.10;99.90;;;;;;5094772;28;20406;-65
2023/01/05 05:34:17;;;;;;;11.13;3.80;;;9.10;99.90;;;;;;5094872;28;20777;-65
2023/01/05 05:36:45;;;;;;;14.83;4.10;;;9.10;99.90;;;;;;5094970;28;20786;-65
2023/01/05 05:39:12;;;;;;;12.88;4.00;;;9.10;99.90;;;;;;5094639;28;20414;-65
2023/01/05 05:41:39;;;;;;;10.45;3.78;;;9.20;99.90;;;;;;5094981;28;20420;-64
2023/01/05 05:44:05;;;;;;;13.15;4.13;;;9.20;99.90;;;;;;5093228;28;20426;-65
2023/01/05 05:46:32;;;;;;;11.90;3.60;;;9.20;99.90;;;;;;5095162;28;20417;-65
2023/01/05 05:49:00;;;;;;;11.93;3.70;;;9.20;99.90;;;;;;5094827;28;20491;-65
2023/01/05 05:51:27;;;;;;;16.52;4.20;;;9.30;99.90;;;;;;5102762;28;20418;-65
2023/01/05 05:53:55;;;;;;;15.02;4.07;;;9.30;99.90;;;;;;5109532;28;20416;-66
2023/01/05 05:56:22;;;;;;;14.50;3.60;;;9.30;99.90;;;;;;5102714;28;20910;-66
2023/01/05 05:58:48;;;;;;;11.98;4.63;;;9.30;99.90;;;;;;5099117;28;20437;-65
2023/01/05 06:01:15;;;;;;;15.40;4.70;;;9.40;99.90;;;;;;5093542;28;20433;-66
2023/01/05 06:03:42;;;;;;;15.27;4.80;;;9.30;99.90;;;;;;5084801;28;20446;-66
2023/01/05 06:06:09;;;;;;;18.67;3.90;;;9.20;99.90;;;;;;5087284;28;20436;-65
2023/01/05 06:08:35;;;;;;;14.88;4.00;;;9.20;99.90;;;;;;5091419;28;20470;-66
2023/01/05 06:11:04;;;;;;;12.05;4.43;;;9.10;99.90;;;;;;5085440;28;20426;-65
2023/01/05 06:13:30;;;;;;;13.38;4.25;;;9.00;99.90;;;;;;5093263;28;20434;-65
2023/01/05 06:15:57;;;;;;;13.60;3.97;;;9.00;99.90;;;;;;5092439;28;20925;-64
2023/01/05 06:18:24;;;;;;;18.33;4.40;;;9.00;99.90;;;;;;5091995;28;20433;-65
2023/01/05 06:20:51;;;;;;;14.37;5.00;;;9.00;99.90;;;;;;5088103;28;20437;-64
2023/01/05 06:23:17;;;;;;;14.30;4.30;;;8.90;99.90;;;;;;5087976;28;20510;-63
2023/01/05 06:25:44;;;;;;;15.82;4.47;;;8.90;99.90;;;;;;5094054;28;20417;-64
2023/01/05 06:28:12;;;;;;;13.43;4.50;;;8.90;99.90;;;;;;5093390;28;20432;-64
2023/01/05 06:30:39;;;;;;;13.27;4.80;;;8.90;99.90;;;;;;5093263;28;20433;-65
2023/01/05 06:33:06;;;;;;;14.65;4.88;;;8.90;99.90;;;;;;5092107;28;20430;-65
2023/01/05 06:35:33;;;;;;;16.75;4.53;;;8.80;99.90;;;;;;5094139;28;20413;-65
2023/01/05 06:37:59;;;;;;;13.63;4.40;;;8.80;99.90;;;;;;5094079;28;20414;-65
2023/01/05 06:40:26;;;;;;;13.43;4.30;;;8.80;99.90;;;;;;5094258;28;20874;-65
2023/01/05 06:42:53;;;;;;;12.15;3.80;;;8.90;99.90;;;;;;5092599;28;20901;-65
2023/01/05 06:45:21;;;;;;;10.38;4.00;;;8.90;99.90;;;;;;5092312;28;20453;-65
2023/01/05 06:47:48;;;;;;;15.23;4.80;;;8.80;99.90;;;;;;5093377;28;20437;-66
2023/01/05 06:50:14;;;;;;;18.33;5.05;;;8.80;99.90;;;;;;5092791;28;20924;-65
2023/01/05 06:52:41;;;;;;;13.00;4.60;;;8.80;99.90;;;;;;5094169;28;20417;-67
2023/01/05 06:55:09;;;;;;;15.95;4.40;;;8.80;99.90;;;;;;5094127;28;20417;-66
2023/01/05 06:57:36;;;;;;;12.90;4.35;;;8.80;99.90;;;;;;5094497;28;20513;-66
2023/01/05 07:00:05;;;;;;;13.02;4.10;;;8.80;99.90;;;;;;5094134;28;20410;-65
2023/01/05 07:02:33;;;;;;;11.80;3.50;;;8.80;99.90;;;;;;5094215;28;20417;-66
2023/01/05 07:05:00;;;;;;;12.77;3.70;;;8.90;99.90;;;;;;5094121;28;20784;-66
2023/01/05 07:07:27;;;;;;;9.15;3.30;;;8.90;99.90;;;;;;5093971;28;20922;-65
2023/01/05 07:09:53;;;;;;;12.45;3.72;;;8.90;99.90;;;;;;5093635;28;20433;-65
2023/01/05 07:12:20;;;;;;;13.98;3.90;;;8.90;99.90;;;;;;5094908;28;20425;-66
2023/01/05 07:14:47;;;;;;;11.23;3.90;;;8.90;99.90;;;;;;5098023;28;20418;-66
2023/01/05 07:17:14;;;;;;;13.88;4.13;;;8.90;99.90;;;;;;5096716;28;20402;-66
2023/01/05 07:19:42;;;;;;;10.07;3.65;;;8.90;99.90;;;;;;5095540;28;20414;-66
2023/01/05 07:22:09;;;;;;;15.95;4.05;;;9.00;99.90;;;;;;5093069;28;20809;-65
2023/01/05 07:24:35;;;;;;;11.73;3.65;;;9.00;99.90;;;;;;5093470;28;20890;-65
2023/01/05 07:27:02;;;;;;;13.32;3.40;;;9.00;99.90;;;;;;5093128;28;20420;-64
2023/01/05 07:29:29;;;;;;;12.53;4.07;;;9.00;99.90;;;;;;5092780;28;20413;-64
2023/01/05 07:31:56;;;;;;;16.75;4.97;;;9.00;99.90;;;;;;5095249;28;20433;-65
2023/01/05 07:34:23;;;;;;;11.13;3.90;;;9.00;99.90;;;;;;5102472;28;20410;-65
2023/01/05 07:36:51;;;;;;;9.68;3.45;;;9.00;99.90;;;;;;5101557;28;20414;-65
2023/01/05 07:39:18;;;;;;;13.77;3.85;;;9.00;99.90;;;;;;5104024;28;20405;-66
2023/01/05 07:41:45;;;;;;;13.52;3.90;;;9.00;99.90;;;;;;5097591;28;20459;-65
2023/01/05 07:44:12;;;;;;;13.80;4.60;;;9.00;99.90;;;;;;5094091;28;20434;-66
2023/01/05 07:46:39;;;;;;;15.18;3.80;;;9.00;99.90;;;;;;5094365;28;20416;-65
2023/01/05 07:49:05;;;;;;;10.95;3.60;;;8.90;99.90;;;;;;5094330;28;20421;-66
2023/01/05 07:51:32;;;;;;;16.10;4.80;;;8.90;99.90;;;;;;5093788;28;20433;-66
2023/01/05 07:54:00;;;;;;;14.07;4.45;;;8.90;99.90;;;;;;5093143;28;20928;-64
2023/01/05 07:56:27;;;;;;;17.65;4.55;;;8.90;99.90;;;;;;5093398;28;20508;-65
2023/01/05 07:58:54;;;;;;;14.68;3.90;;;8.90;99.90;;;;;;5092979;28;20413;-65
2023/01/05 08:01:21;;;;;;;14.73;3.38;;;8.90;99.90;;;;;;5093198;28;20417;-64
2023/01/05 08:03:47;;;;;;;13.10;3.50;;;8.90;99.90;;;;;;5093363;28;20751;-66
2023/01/05 08:06:17;;;;;;;12.77;3.70;;;8.90;99.90;;;;;;5093064;28;20422;-65
2023/01/05 08:08:44;;;;;;;11.00;3.30;;;8.90;99.90;;;;;;5092632;28;20796;-64
2023/01/05 08:11:14;;;;;;;10.35;3.55;;;8.90;99.90;;;;;;5093116;28;20539;-65
2023/01/05 08:13:59;;;;;;;10.52;3.35;;;8.90;99.90;;;;;;5092513;28;20422;-64
2023/01/05 08:16:26;;;;;;;13.30;3.70;;;8.90;99.90;;;;;;5092672;28;20406;-64
2023/01/05 08:18:54;;;;;;;12.43;4.13;;;8.90;99.90;;;;;;5092309;28;20413;-65
2023/01/05 08:21:21;;;;;;;12.70;4.05;;;8.90;99.90;;;;;;5092243;28;20421;-64
2023/01/05 08:23:49;;;;;;;14.77;3.80;;;8.90;99.90;;;;;;5092928;28;20413;-65
2023/01/05 08:26:19;;;;;;;11.32;4.20;;;8.90;99.90;;;;;;5092509;28;20455;-65
2023/01/05 08:28:46;;;;;;;13.32;3.60;;;8.90;99.90;;;;;;5093985;28;20414;-66
2023/01/05 08:31:15;;;;;;;10.23;3.70;;;8.90;99.90;;;;;;5094337;28;20457;-66
2023/01/05 08:33:42;;;;;;;10.93;3.67;;;9.00;99.90;;;;;;5097065;28;20424;-66
2023/01/05 08:36:10;;;;;;;10.82;3.83;;;9.00;99.90;;;;;;5094433;28;20410;-65
2023/01/05 08:38:37;;;;;;;10.65;3.90;;;9.00;99.90;;;;;;5098071;28;20427;-65
2023/01/05 08:41:04;;;;;;;11.23;3.90;;;9.10;99.90;;;;;;5095585;28;20782;-64
2023/01/05 08:43:32;;;;;;;8.50;3.40;;;9.10;99.90;;;;;;5091827;28;20421;-65
2023/01/05 08:45:59;;;;;;;11.88;3.40;;;9.10;99.90;;;;;;5092317;28;20421;-65
2023/01/05 08:48:26;;;;;;;12.32;3.10;;;9.10;99.90;;;;;;5091570;28;20477;-65
2023/01/05 08:50:53;;;;;;;14.43;3.72;;;9.00;99.90;;;;;;5093979;28;20425;-64
2023/01/05 08:53:20;;;;;;;13.15;3.63;;;9.00;99.90;;;;;;5093874;28;20414;-65
2023/01/05 08:55:47;;;;;;;11.70;3.95;;;9.00;99.90;;;;;;5095386;28;20418;-66
2023/01/05 08:58:13;;;;;;;11.40;4.27;;;9.00;99.90;;;;;;5098510;28;20401;-65
2023/01/05 09:00:41;;;;;;;11.57;4.67;;;9.00;99.90;;;;;;5105593;28;20413;-63
2023/01/05 09:03:09;;;;;;;16.40;4.50;;;9.00;99.90;;;;;;5109190;28;20406;-64
2023/01/05 09:05:36;;;;;;;10.50;3.70;;;9.00;99.90;;;;;;5105218;28;20421;-65
2023/01/05 09:08:03;;;;;;;12.93;4.20;;;9.00;99.90;;;;;;5108129;28;20433;-63
2023/01/05 09:10:30;;;;;;;12.40;3.90;;;9.00;99.90;;;;;;5102700;28;20425;-64
2023/01/05 09:12:57;;;;;;;14.07;4.30;;;9.10;99.90;;;;;;5097163;28;20816;-65
2023/01/05 09:15:23;;;;;;;12.80;4.00;;;9.10;99.90;;;;;;5097108;28;20421;-64
2023/01/05 09:17:52;;;;;;;11.60;4.30;;;9.10;99.90;;;;;;5097348;28;20413;-66
2023/01/05 09:20:18;;;;;;;11.37;4.17;;;9.10;99.90;;;;;;5098078;28;20414;-66
2023/01/05 09:22:45;;;;;;;12.13;3.97;;;9.10;99.90;;;;;;5097689;28;20410;-64
2023/01/05 09:25:12;;;;;;;12.95;3.85;;;9.00;99.90;;;;;;5097153;28;20414;-65
2023/01/05 09:27:38;;;;;;;9.18;3.90;;;9.10;99.90;;;;;;5102651;28;20410;-66
2023/01/05 09:30:06;;;;;;;12.10;3.50;;;9.10;99.90;;;;;;5103583;28;20410;-64
2023/01/05 09:32:33;;;;;;;10.15;3.70;;;9.10;99.90;;;;;;5105238;28;20471;-64
2023/01/05 09:35:01;;;;;;;15.93;3.80;;;9.20;99.90;;;;;;5100653;28;20417;-63
2023/01/05 09:37:27;;;;;;;13.30;3.80;;;9.20;99.90;;;;;;5097760;28;20414;-64
2023/01/05 09:39:54;;;;;;;12.35;2.90;;;9.30;99.90;;;;;;5096229;28;20417;-64
2023/01/05 09:42:23;;;;;;;10.02;3.33;;;9.30;99.90;;;;;;5096756;28;20413;-65
2023/01/05 09:44:54;;;;;;;8.82;3.20;;;9.30;99.90;;;;;;5095413;28;20413;-65
2023/01/05 09:47:27;;;;;;;10.80;3.17;;;9.40;99.90;;;;;;5096046;28;20782;-64
2023/01/05 09:49:55;;;;;;;10.50;2.90;;;9.40;99.90;;;;;;5095524;28;20417;-64
2023/01/05 09:52:23;;;;;;;7.93;2.90;;;9.50;99.90;;;;;;5095419;28;20872;-64
2023/01/05 09:54:49;;;;;;;8.20;2.70;;;9.50;99.90;;;;;;5095602;28;20413;-63
2023/01/05 09:57:20;;;;;;;11.70;3.00;;;9.60;99.90;;;;;;5095460;28;20441;-65
2023/01/05 09:59:49;;;;;;;12.35;3.15;;;9.60;99.90;;;;;;5095456;28;20410;-64
2023/01/05 10:02:25;;;;;;;9.68;3.00;;;9.60;99.90;;;;;;5094710;28;20894;-65
2023/01/05 10:04:52;;;;;;;8.60;2.97;;;9.70;99.90;;;;;;5094883;28;20410;-65
2023/01/05 10:07:29;;;;;;;6.97;3.00;;;9.70;99.90;;;;;;5094586;28;20420;-65
2023/01/05 10:10:00;;;;;;;8.03;2.20;;;9.80;99.90;;;;;;5094690;28;20413;-64
2023/01/05 10:15:19;;;;;;;10.02;3.03;;;9.80;99.90;;;;;;5094545;28;20468;-65
2023/01/05 10:17:47;;;;;;;8.90;2.40;;;9.90;99.90;;;;;;5095136;28;20424;-64
2023/01/05 10:20:19;;;;;;;9.02;2.58;;;9.80;99.90;;;;;;5095102;28;20417;-65
2023/01/05 10:22:59;;;;;;;9.00;2.30;;;9.90;99.90;;;;;;5094701;28;20413;-64
2023/01/05 10:25:34;;;;;;;10.50;2.63;;;9.90;99.90;;;;;;5094938;28;20426;-65
2023/01/05 10:28:10;;;;;;;7.63;2.37;;;9.80;99.90;;;;;;5094825;28;20402;-64
2023/01/05 10:30:47;;;;;;;8.13;2.60;;;9.80;99.90;;;;;;5094110;28;20899;-65
2023/01/05 10:33:21;;;;;;;8.88;3.10;;;9.80;99.90;;;;;;5096253;28;20414;-66
2023/01/05 10:35:59;;;;;;;7.15;2.72;;;9.70;99.90;;;;;;5094783;28;20418;-66
2023/01/05 10:38:42;;;;;;;7.18;2.60;;;9.70;99.90;;;;;;5094675;28;20778;-65
2023/01/05 10:41:18;;;;;;;7.93;2.63;;;9.70;99.90;;;;;;5094340;28;20417;-66
2023/01/05 10:43:58;;;;;;;8.63;2.78;;;9.70;99.90;;;;;;5094017;28;20430;-65
2023/01/05 10:46:25;;;;;;;5.50;1.90;;;9.70;99.90;;;;;;5094606;28;20410;-65
2023/01/05 10:48:51;;;;;;;5.07;2.05;;;9.80;99.90;;;;;;5094663;28;20414;-64
2023/01/05 10:51:18;;;;;;;4.88;1.70;;;9.70;99.90;;;;;;5094593;28;20430;-64
2023/01/05 10:53:47;;;;;;;5.63;1.80;;;9.70;99.90;;;;;;5095343;28;20417;-64
2023/01/05 10:56:15;;;;;;;6.00;2.10;;;9.60;99.90;;;;;;5094153;28;20421;-65
2023/01/05 10:58:45;;;;;;;5.60;1.90;;;9.50;99.90;;;;;;5093885;28;20417;-65
2023/01/05 11:01:23;;;;;;;3.90;2.10;;;9.40;99.90;;;;;;5094228;28;20508;-65
2023/01/05 11:03:54;;;;;;;4.80;1.60;;;9.40;99.90;;;;;;5094592;28;20468;-65
2023/01/05 11:06:23;;;;;;;4.97;1.90;;;9.40;99.90;;;;;;5093846;28;20422;-64
2023/01/05 11:08:52;;;;;;;4.07;1.90;;;9.50;99.90;;;;;;5093457;28;20562;-65
2023/01/05 11:11:24;;;;;;;5.67;1.97;;;9.60;99.90;;;;;;5092766;28;20425;-64
2023/01/05 11:13:55;;;;;;;4.70;1.83;;;9.60;99.90;;;;;;5094122;28;20414;-65
2023/01/05 11:16:25;;;;;;;7.40;2.27;;;9.70;99.90;;;;;;5093675;28;20421;-66
2023/01/05 11:18:54;;;;;;;6.30;2.38;;;9.70;99.90;;;;;;5094147;28;20421;-65
2023/01/05 11:21:22;;;;;;;7.78;2.53;;;9.70;99.90;;;;;;5095261;28;20417;-65
2023/01/05 11:23:52;;;;;;;4.80;2.00;;;9.70;99.90;;;;;;5094232;28;20492;-64
2023/01/05 11:26:28;;;;;;;4.10;1.63;;;9.70;99.90;;;;;;5093149;28;20410;-64
2023/01/05 11:29:17;;;;;;;4.00;1.50;;;9.50;99.90;;;;;;5093356;28;20477;-65
2023/01/05 11:31:48;;;;;;;2.30;0.90;;;9.30;99.90;;;;;;5088726;28;20430;-64
2023/01/05 11:34:26;;;;;;;1.60;0.80;;;9.10;99.90;;;;;;5092840;28;20414;-64
2023/01/05 11:36:54;;;;;;;1.83;1.00;;;8.90;99.90;;;;;;5093465;28;20442;-64
2023/01/05 11:39:27;;;;;;;4.00;1.20;;;8.70;99.90;;;;;;5093127;28;20416;-65
2023/01/05 11:42:13;;;;;;;1.58;0.70;;;8.50;99.90;;;;;;5092878;28;20788;-63
2023/01/05 11:44:43;;;;;;;2.53;0.90;;;8.40;99.90;;;;;;5093169;28;20424;-64
2023/01/05 11:47:18;;;;;;;2.30;0.87;;;8.30;99.90;;;;;;5093232;28;20856;-65
2023/01/05 11:49:45;;;;;;;1.92;0.90;;;8.20;99.90;;;;;;5103401;28;20410;-64
2023/01/05 11:52:26;;;;;;;4.00;1.10;;;8.00;99.90;;;;;;5105042;28;20509;-64
2023/01/05 11:54:54;;;;;;;3.17;1.00;;;8.00;99.90;;;;;;5094665;28;20455;-64
2023/01/05 11:57:22;;;;;;;1.58;1.08;;;7.90;99.90;;;;;;5094358;28;20417;-64
2023/01/05 11:59:50;;;;;;;3.20;1.20;;;7.90;99.90;;;;;;5093388;28;20410;-64
2023/01/05 12:02:59;;;;;;;3.55;1.30;;;7.90;99.90;;;;;;5093902;28;20410;-65
2023/01/05 12:05:36;;;;;;;3.13;1.48;;;7.90;99.90;;;;;;5064285;28;20421;-64
2023/01/05 12:08:08;;;;;;;3.13;1.60;;;7.90;99.90;;;;;;5093867;28;20441;-65
2023/01/05 12:10:47;;;;;;;3.17;1.40;;;7.80;99.90;;;;;;5094300;28;20490;-63
2023/01/05 12:13:31;;;;;;;1.90;0.90;;;7.80;99.90;;;;;;5094233;28;20422;-64
2023/01/05 12:16:15;;;;;;;3.77;1.50;;;7.80;99.90;;;;;;5093388;28;20948;-63
2023/01/05 12:19:14;;;;;;;2.57;1.30;;;7.80;99.90;;;;;;5093338;28;20946;-64
2023/01/05 12:21:48;;;;;;;3.35;2.03;;;7.80;99.90;;;;;;5094948;28;20428;-64
2023/01/05 12:24:40;;;;;;;3.92;1.60;;;7.80;99.90;;;;;;5099863;28;20424;-63
2023/01/05 12:27:24;;;;;;;4.30;1.70;;;7.80;99.90;;;;;;5093246;28;20449;-65
2023/01/05 12:30:12;;;;;;;3.83;1.70;;;7.80;99.90;;;;;;5100312;28;20406;-63
2023/01/05 12:32:54;;;;;;;3.92;1.90;;;7.80;99.90;;;;;;5103584;28;20429;-65
2023/01/05 12:35:47;;;;;;;3.10;2.10;;;7.90;99.90;;;;;;5100315;28;20453;-65
2023/01/05 12:38:24;;;;;;;4.35;2.50;;;8.00;99.90;;;;;;5103162;28;20397;-65
2023/01/05 12:41:16;;;;;;;3.45;2.42;;;8.10;99.90;;;;;;5101526;28;20421;-65
2023/01/05 12:43:58;;;;;;;4.50;2.67;;;8.10;99.90;;;;;;5095101;28;20426;-65
2023/01/05 12:46:36;;;;;;;3.00;2.20;;;8.20;99.90;;;;;;5097371;28;20420;-65
2023/01/05 12:49:09;;;;;;;5.13;2.50;;;8.20;99.90;;;;;;5100087;28;20414;-66
2023/01/05 12:51:40;;;;;;;5.20;2.50;;;8.30;99.90;;;;;;5104167;28;20460;-65
2023/01/05 12:54:09;;;;;;;4.50;2.35;;;8.30;99.90;;;;;;5103087;28;20424;-66
2023/01/05 12:56:41;;;;;;;6.03;2.90;;;8.30;99.90;;;;;;5104114;28;20886;-64
2023/01/05 12:59:16;;;;;;;5.15;2.83;;;8.40;99.90;;;;;;5104580;28;20425;-66
2023/01/05 13:01:49;;;;;;;3.60;2.20;;;8.40;99.90;;;;;;5101247;28;20417;-64
2023/01/05 13:04:32;;;;;;;5.40;2.70;;;8.40;99.90;;;;;;5103837;28;20464;-66
2023/01/05 13:07:00;;;;;;;4.10;2.33;;;8.40;99.90;;;;;;5107237;28;20434;-66
2023/01/05 13:09:31;;;;;;;5.63;2.55;;;8.40;99.90;;;;;;5108996;28;20429;-65
2023/01/05 13:12:03;;;;;;;3.30;2.50;;;8.40;99.90;;;;;;5108488;28;20431;-64
2023/01/05 13:14:35;;;;;;;5.40;2.83;;;8.40;99.90;;;;;;5107926;28;20413;-66
2023/01/05 13:17:06;;;;;;;6.57;3.20;;;8.40;99.90;;;;;;5108000;28;20413;-66
2023/01/05 13:19:37;;;;;;;6.78;3.63;;;8.40;99.90;;;;;;5107776;28;20882;-65
2023/01/05 13:22:10;;;;;;;5.75;3.83;;;8.40;99.90;;;;;;5104285;28;20453;-64
2023/01/05 13:24:43;;;;;;;7.20;4.43;;;8.40;99.90;;;;;;5101073;28;20410;-65
2023/01/05 13:27:12;;;;;;;8.95;4.50;;;8.40;99.90;;;;;;5099781;28;20423;-65
2023/01/05 13:29:45;;;;;;;5.93;3.63;;;8.50;99.90;;;;;;5100979;28;20425;-65
2023/01/05 13:32:32;;;;;;;6.70;3.90;;;8.50;99.90;;;;;;5101691;28;20509;-65
2023/01/05 13:35:18;;;;;;;4.35;2.60;;;8.50;99.90;;;;;;5099405;28;20413;-65
2023/01/05 13:38:11;;;;;;;5.15;2.58;;;8.50;99.90;;;;;;5099470;28;20410;-65